Time;durP1;ratioP1;P1;durP2;ratioP2;P2;SDS_P1;SDS_P2;PMS_P1;PMS_P2;Temp;Humidity;BMP_temperature;BMP_pressure;BME280_temperature;BME280_humidity;BME280_pressure;Samples;Min_cycle;Max_cycle;Signal;HPM_P1;HPM_P2
2023/07/16 00:02:21;;;;;;;3.45;1.70;;;;;20.30;98348.00;;;;4991444;28;20124;-63
2023/07/16 00:04:48;;;;;;;2.90;1.52;;;;;20.20;98352.00;;;;5007942;28;20137;-64
2023/07/16 00:07:15;;;;;;;2.95;1.95;;;;;20.20;98351.00;;;;4993103;28;20121;-64
2023/07/16 00:09:41;;;;;;;3.85;1.65;;;;;20.20;98356.00;;;;4992291;28;20619;-64
2023/07/16 00:12:09;;;;;;;3.53;2.13;;;;;20.10;98345.00;;;;4992721;28;20044;-63
2023/07/16 00:14:35;;;;;;;3.42;1.77;;;;;20.10;98331.00;;;;4992875;28;20391;-63
2023/07/16 00:17:02;;;;;;;5.03;2.10;;;;;20.10;98324.00;;;;4991625;28;20042;-63
2023/07/16 00:19:29;;;;;;;4.75;2.28;;;;;20.20;98320.00;;;;4992263;28;20142;-63
2023/07/16 00:21:55;;;;;;;1.52;1.42;;;;;20.20;98328.00;;;;5008134;28;20042;-63
2023/07/16 00:24:22;;;;;;;3.67;2.05;;;;;20.10;98316.00;;;;4992484;28;20049;-63
2023/07/16 00:26:50;;;;;;;2.92;1.90;;;;;20.20;98314.00;;;;5007447;28;20137;-63
2023/07/16 00:29:16;;;;;;;3.63;1.80;;;;;20.10;98338.00;;;;5007279;28;20141;-63
2023/07/16 00:31:44;;;;;;;3.10;1.85;;;;;20.10;98344.00;;;;4991484;28;20046;-64
2023/07/16 00:34:12;;;;;;;3.72;1.80;;;;;20.00;98318.00;;;;4992778;28;20038;-64
2023/07/16 00:36:39;;;;;;;2.60;1.80;;;;;20.00;98302.00;;;;4991107;28;20081;-64
2023/07/16 00:39:06;;;;;;;3.38;2.08;;;;;20.00;98311.00;;;;5006951;28;20089;-64
2023/07/16 00:41:33;;;;;;;3.08;1.63;;;;;20.00;98333.00;;;;4991204;28;20055;-63
2023/07/16 00:43:59;;;;;;;2.35;1.50;;;;;19.90;98333.00;;;;5007814;28;20046;-63
2023/07/16 00:46:26;;;;;;;5.72;2.05;;;;;19.90;98348.00;;;;4991054;28;20133;-63
2023/07/16 00:48:53;;;;;;;5.60;2.13;;;;;19.90;98335.00;;;;5007420;28;20066;-63
2023/07/16 00:51:22;;;;;;;4.38;1.95;;;;;19.80;98337.00;;;;4990632;28;20077;-63
2023/07/16 00:53:49;;;;;;;1.85;1.63;;;;;19.90;98347.00;;;;4991504;28;20691;-63
2023/07/16 00:56:19;;;;;;;2.63;1.80;;;;;19.80;98356.00;;;;4974860;28;20070;-63
2023/07/16 00:58:46;;;;;;;2.58;1.75;;;;;19.80;98365.00;;;;4992494;28;20070;-63
2023/07/16 01:01:13;;;;;;;2.70;2.05;;;;;19.80;98362.00;;;;4991835;28;20495;-63
2023/07/16 01:03:40;;;;;;;4.35;2.25;;;;;19.80;98370.00;;;;4992328;28;20487;-63
2023/07/16 01:06:13;;;;;;;3.75;2.13;;;;;19.80;98375.00;;;;4990857;28;20101;-64
2023/07/16 01:09:17;;;;;;;3.75;1.83;;;;;19.80;98373.00;;;;5007589;28;20058;-63
2023/07/16 01:11:44;;;;;;;2.60;2.08;;;;;19.80;98376.00;;;;4983563;28;20055;-64
2023/07/16 01:14:14;;;;;;;5.53;2.17;;;;;19.80;98385.00;;;;5009146;28;20054;-64
2023/07/16 01:16:41;;;;;;;4.05;2.17;;;;;19.70;98392.00;;;;4994818;28;20049;-63
2023/07/16 01:19:09;;;;;;;3.70;2.03;;;;;19.70;98400.00;;;;4994266;28;20565;-64
2023/07/16 01:21:55;;;;;;;2.45;1.55;;;;;19.60;98398.00;;;;4994691;28;20137;-63
2023/07/16 01:24:54;;;;;;;6.15;1.73;;;;;19.50;98405.00;;;;4994826;28;20718;-64
2023/07/16 01:27:43;;;;;;;5.97;2.20;;;;;19.50;98397.00;;;;5010867;28;20081;-63
2023/07/16 01:30:15;;;;;;;3.75;1.60;;;;;19.40;98402.00;;;;4994235;28;20101;-64
2023/07/16 01:32:44;;;;;;;5.68;2.20;;;;;19.40;98411.00;;;;4995315;28;20050;-63
2023/07/16 01:35:12;;;;;;;2.92;1.80;;;;;19.40;98399.00;;;;4995387;28;20479;-63
2023/07/16 01:37:40;;;;;;;5.10;2.10;;;;;19.30;98407.00;;;;4995056;28;20109;-64
2023/07/16 01:40:08;;;;;;;3.28;1.80;;;;;19.30;98408.00;;;;4995412;28;20054;-63
2023/07/16 01:42:35;;;;;;;4.65;2.38;;;;;19.30;98409.00;;;;5011360;28;20043;-63
2023/07/16 01:45:02;;;;;;;4.20;1.80;;;;;19.20;98406.00;;;;5011016;28;20046;-64
2023/07/16 01:47:28;;;;;;;4.88;2.17;;;;;19.20;98406.00;;;;4995783;28;20038;-64
2023/07/16 01:49:56;;;;;;;7.55;2.33;;;;;19.20;98409.00;;;;4994376;28;20058;-64
2023/07/16 01:52:22;;;;;;;2.53;1.80;;;;;19.10;98420.00;;;;4995204;28;20622;-63
2023/07/16 01:54:49;;;;;;;3.70;1.80;;;;;19.10;98405.00;;;;4996196;28;20046;-63
2023/07/16 01:57:16;;;;;;;2.22;1.70;;;;;19.00;98410.00;;;;4995822;28;20088;-64
2023/07/16 01:59:43;;;;;;;4.28;2.40;;;;;19.00;98415.00;;;;4995065;28;20431;-63
2023/07/16 02:02:09;;;;;;;3.67;2.00;;;;;19.00;98417.00;;;;5002993;28;20056;-63
2023/07/16 02:04:37;;;;;;;5.25;1.90;;;;;19.00;98411.00;;;;5014407;28;20056;-64
2023/07/16 02:07:04;;;;;;;4.80;2.22;;;;;18.90;98418.00;;;;5031470;28;20077;-64
2023/07/16 02:09:31;;;;;;;4.82;1.95;;;;;18.90;98416.00;;;;5014077;28;20054;-64
2023/07/16 02:11:57;;;;;;;4.47;1.60;;;;;18.90;98417.00;;;;4997781;28;20088;-63
2023/07/16 02:14:24;;;;;;;3.17;2.00;;;;;18.80;98419.00;;;;5013995;28;20077;-64
2023/07/16 02:16:50;;;;;;;6.68;2.05;;;;;18.80;98420.00;;;;5030282;28;20070;-63
2023/07/16 02:19:17;;;;;;;4.80;2.00;;;;;18.80;98422.00;;;;5013150;28;20653;-64
2023/07/16 02:21:43;;;;;;;4.68;2.28;;;;;18.80;98429.00;;;;4997355;28;20503;-63
2023/07/16 02:24:10;;;;;;;5.15;2.30;;;;;18.70;98429.00;;;;5013609;28;20042;-64
2023/07/16 02:26:37;;;;;;;2.53;1.85;;;;;18.70;98427.00;;;;5012254;28;20050;-64
2023/07/16 02:29:08;;;;;;;6.57;2.53;;;;;18.70;98430.00;;;;5012764;28;20050;-62
2023/07/16 02:31:36;;;;;;;6.68;2.22;;;;;18.60;98432.00;;;;5029575;28;20101;-64
2023/07/16 02:34:03;;;;;;;4.85;2.03;;;;;18.60;98438.00;;;;5013236;28;20046;-64
2023/07/16 02:36:32;;;;;;;4.20;2.22;;;;;18.50;98427.00;;;;5014560;28;20038;-62
2023/07/16 02:38:58;;;;;;;5.03;1.90;;;;;18.50;98434.00;;;;5013670;28;20057;-64
2023/07/16 02:41:25;;;;;;;10.05;2.97;;;;;18.50;98446.00;;;;5013030;28;20076;-63
2023/07/16 02:44:00;;;;;;;9.43;2.40;;;;;18.60;98450.00;;;;5029367;28;20076;-63
2023/07/16 02:46:27;;;;;;;9.50;2.50;;;;;18.50;98455.00;;;;5029049;28;20046;-62
2023/07/16 02:48:54;;;;;;;5.05;1.98;;;;;18.50;98454.00;;;;5013999;28;20096;-62
2023/07/16 02:51:21;;;;;;;3.22;1.90;;;;;18.50;98457.00;;;;5012402;28;20081;-63
2023/07/16 02:53:47;;;;;;;4.65;2.00;;;;;18.50;98455.00;;;;5012703;28;20045;-63
2023/07/16 02:56:14;;;;;;;4.00;2.45;;;;;18.50;98455.00;;;;5029074;28;20042;-63
2023/07/16 02:58:41;;;;;;;4.75;2.00;;;;;18.60;98458.00;;;;5012455;28;20050;-63
2023/07/16 03:01:07;;;;;;;5.43;2.13;;;;;18.50;98463.00;;;;5028602;28;20096;-63
2023/07/16 03:03:35;;;;;;;6.32;2.10;;;;;18.50;98466.00;;;;5012480;28;20046;-63
2023/07/16 03:06:02;;;;;;;5.32;2.00;;;;;18.40;98462.00;;;;5014175;28;20041;-63
2023/07/16 03:08:29;;;;;;;7.80;2.00;;;;;18.40;98464.00;;;;5013800;28;20490;-65
2023/07/16 03:10:57;;;;;;;4.75;1.90;;;;;18.40;98463.00;;;;5028127;28;20099;-63
2023/07/16 03:13:23;;;;;;;4.47;1.90;;;;;18.40;98465.00;;;;5012174;28;20129;-63
2023/07/16 03:15:50;;;;;;;6.15;2.10;;;;;18.40;98461.00;;;;5012105;28;20136;-63
2023/07/16 03:18:20;;;;;;;6.03;2.20;;;;;18.40;98465.00;;;;5012114;28;20077;-63
2023/07/16 03:20:46;;;;;;;8.23;2.17;;;;;18.30;98472.00;;;;5027786;28;20529;-63
2023/07/16 03:23:13;;;;;;;6.82;2.55;;;;;18.30;98469.00;;;;5013395;28;20066;-63
2023/07/16 03:25:40;;;;;;;6.78;2.35;;;;;18.30;98478.00;;;;5011833;28;20494;-63
2023/07/16 03:28:06;;;;;;;4.22;2.00;;;;;18.30;98477.00;;;;4995561;28;20077;-63
2023/07/16 03:30:33;;;;;;;6.57;2.20;;;;;18.20;98477.00;;;;5011552;28;20061;-64
2023/07/16 03:33:00;;;;;;;2.90;1.85;;;;;18.20;98480.00;;;;5011905;28;20056;-63
2023/07/16 03:35:26;;;;;;;4.00;1.90;;;;;18.30;98482.00;;;;5011842;28;20137;-63
2023/07/16 03:37:53;;;;;;;4.15;1.90;;;;;18.20;98488.00;;;;5028052;28;20477;-63
2023/07/16 03:40:26;;;;;;;6.90;1.83;;;;;18.20;98496.00;;;;5027314;28;20073;-63
2023/07/16 03:42:53;;;;;;;3.17;2.00;;;;;18.10;98494.00;;;;5028746;28;20045;-63
2023/07/16 03:45:20;;;;;;;4.55;2.17;;;;;18.10;98493.00;;;;4995765;28;20042;-63
2023/07/16 03:47:46;;;;;;;5.72;2.17;;;;;18.20;98495.00;;;;5011521;28;20100;-63
2023/07/16 03:50:13;;;;;;;5.07;2.10;;;;;18.20;98501.00;;;;4995042;28;20077;-63
2023/07/16 03:52:40;;;;;;;4.50;1.95;;;;;18.20;98501.00;;;;5011519;28;20080;-63
2023/07/16 03:55:07;;;;;;;6.80;2.40;;;;;18.20;98498.00;;;;5012650;28;20074;-64
2023/07/16 03:57:34;;;;;;;3.58;1.95;;;;;18.20;98504.00;;;;5011774;28;20053;-63
2023/07/16 04:00:02;;;;;;;7.13;2.47;;;;;18.20;98507.00;;;;4994640;28;20538;-64
2023/07/16 04:02:28;;;;;;;5.20;2.42;;;;;18.20;98502.00;;;;5011417;28;20410;-64
2023/07/16 04:04:55;;;;;;;7.53;2.70;;;;;18.20;98511.00;;;;5012588;28;20550;-64
2023/07/16 04:07:24;;;;;;;6.55;2.13;;;;;18.20;98517.00;;;;5011276;28;20042;-64
2023/07/16 04:09:51;;;;;;;7.60;2.13;;;;;18.20;98515.00;;;;5010636;28;20049;-64
2023/07/16 04:12:18;;;;;;;3.38;2.28;;;;;18.20;98524.00;;;;5011259;28;20414;-64
2023/07/16 04:14:44;;;;;;;4.65;2.00;;;;;18.20;98517.00;;;;5012241;28;20060;-64
2023/07/16 04:17:11;;;;;;;5.88;2.20;;;;;18.30;98523.00;;;;5011143;28;20050;-64
2023/07/16 04:19:38;;;;;;;4.70;2.42;;;;;18.30;98531.00;;;;5011789;28;20070;-65
2023/07/16 04:22:05;;;;;;;4.75;2.28;;;;;18.30;98529.00;;;;5012251;28;20048;-64
2023/07/16 04:24:31;;;;;;;5.15;2.22;;;;;18.30;98541.00;;;;5011025;28;20073;-64
2023/07/16 04:26:58;;;;;;;5.55;2.10;;;;;18.30;98537.00;;;;5027281;28;20042;-64
2023/07/16 04:29:25;;;;;;;4.15;2.13;;;;;18.30;98538.00;;;;5010470;28;20574;-64
2023/07/16 04:31:52;;;;;;;7.32;2.20;;;;;18.30;98544.00;;;;5012261;28;20049;-64
2023/07/16 04:34:18;;;;;;;7.43;2.70;;;;;18.30;98542.00;;;;5012204;28;20044;-64
2023/07/16 04:36:45;;;;;;;7.70;2.30;;;;;18.30;98539.00;;;;5027188;28;20487;-64
2023/07/16 04:39:11;;;;;;;4.95;2.65;;;;;18.40;98540.00;;;;5026740;28;20050;-64
2023/07/16 04:41:38;;;;;;;5.65;2.28;;;;;18.30;98543.00;;;;5011182;28;20467;-63
2023/07/16 04:44:05;;;;;;;4.78;2.45;;;;;18.40;98543.00;;;;5012160;28;20494;-63
2023/07/16 04:46:32;;;;;;;6.65;2.00;;;;;18.40;98541.00;;;;5012093;28;20139;-63
2023/07/16 04:48:58;;;;;;;6.43;2.33;;;;;18.50;98544.00;;;;5013888;28;20052;-63
2023/07/16 04:51:25;;;;;;;4.95;2.40;;;;;18.50;98549.00;;;;5014371;28;20120;-64
2023/07/16 04:53:53;;;;;;;3.05;2.42;;;;;18.60;98557.00;;;;5016362;28;20050;-64
2023/07/16 04:56:19;;;;;;;8.50;2.90;;;;;18.60;98561.00;;;;5031182;28;20054;-62
2023/07/16 04:58:46;;;;;;;6.28;2.40;;;;;18.70;98572.00;;;;5016029;28;20053;-64
2023/07/16 05:01:12;;;;;;;5.28;2.40;;;;;18.80;98570.00;;;;5030440;28;20124;-63
2023/07/16 05:03:39;;;;;;;4.60;2.17;;;;;18.80;98566.00;;;;5014618;28;20507;-63
2023/07/16 05:06:06;;;;;;;6.80;2.40;;;;;18.90;98558.00;;;;5015692;28;20057;-62
2023/07/16 05:08:32;;;;;;;5.13;2.47;;;;;19.00;98566.00;;;;5031053;28;20116;-63
2023/07/16 05:10:59;;;;;;;4.53;2.40;;;;;19.10;98568.00;;;;5015240;28;20104;-64
2023/07/16 05:13:26;;;;;;;6.25;2.40;;;;;19.10;98571.00;;;;5015895;28;20229;-64
2023/07/16 05:15:52;;;;;;;6.53;2.42;;;;;19.10;98584.00;;;;5030898;28;20057;-64
2023/07/16 05:18:21;;;;;;;5.25;2.40;;;;;19.30;98590.00;;;;5015685;28;20505;-64
2023/07/16 05:20:49;;;;;;;7.45;2.20;;;;;19.20;98595.00;;;;5013938;28;20494;-63
2023/07/16 05:23:15;;;;;;;3.67;2.30;;;;;19.20;98597.00;;;;5015957;28;20042;-64
2023/07/16 05:25:47;;;;;;;4.85;2.40;;;;;19.30;98594.00;;;;5015373;28;20141;-63
2023/07/16 05:28:14;;;;;;;4.00;2.30;;;;;19.40;98596.00;;;;5014324;28;20041;-63
2023/07/16 05:30:41;;;;;;;5.15;2.45;;;;;19.40;98591.00;;;;5014709;28;20764;-63
2023/07/16 05:33:07;;;;;;;6.47;2.60;;;;;19.40;98597.00;;;;5014133;28;20136;-64
2023/07/16 05:35:34;;;;;;;4.38;2.22;;;;;19.50;98602.00;;;;5013888;28;20073;-63
2023/07/16 05:38:00;;;;;;;10.70;2.90;;;;;19.50;98603.00;;;;5015222;28;20042;-63
2023/07/16 05:40:27;;;;;;;4.97;2.22;;;;;19.50;98603.00;;;;5014457;28;20071;-63
2023/07/16 05:42:54;;;;;;;6.45;3.08;;;;;19.60;98608.00;;;;5013841;28;20045;-63
2023/07/16 05:45:20;;;;;;;5.18;2.70;;;;;19.60;98607.00;;;;5014899;28;20038;-64
2023/07/16 05:47:47;;;;;;;2.88;2.40;;;;;19.60;98612.00;;;;4997294;28;20064;-63
2023/07/16 05:50:13;;;;;;;9.20;3.20;;;;;19.60;98609.00;;;;5013382;28;20121;-63
2023/07/16 05:52:42;;;;;;;8.25;2.65;;;;;19.60;98603.00;;;;5014980;28;20069;-64
2023/07/16 05:55:08;;;;;;;5.93;2.80;;;;;19.60;98613.00;;;;5015022;28;20124;-63
2023/07/16 05:57:35;;;;;;;5.30;2.67;;;;;19.80;98605.00;;;;5013994;28;20474;-62
2023/07/16 06:00:05;;;;;;;7.55;2.92;;;;;19.90;98609.00;;;;5013995;28;20120;-63
2023/07/16 06:02:37;;;;;;;5.65;3.13;;;;;19.90;98611.00;;;;5014938;28;20087;-63
2023/07/16 06:05:04;;;;;;;9.30;3.25;;;;;20.00;98612.00;;;;5014528;28;20141;-64
2023/07/16 06:07:31;;;;;;;7.75;2.72;;;;;19.90;98601.00;;;;5014783;28;20450;-63
2023/07/16 06:09:58;;;;;;;7.72;2.83;;;;;19.90;98614.00;;;;5029138;28;20077;-63
2023/07/16 06:12:25;;;;;;;7.60;2.85;;;;;20.00;98610.00;;;;5014495;28;20049;-63
2023/07/16 06:14:51;;;;;;;6.75;2.83;;;;;20.20;98620.00;;;;5014258;28;20056;-63
2023/07/16 06:17:18;;;;;;;5.65;2.78;;;;;20.30;98610.00;;;;5013223;28;20311;-63
2023/07/16 06:19:45;;;;;;;7.10;2.63;;;;;20.30;98629.00;;;;5029065;28;20049;-63
2023/07/16 06:22:11;;;;;;;6.78;3.25;;;;;20.30;98632.00;;;;5012944;28;20049;-63
2023/07/16 06:24:38;;;;;;;5.40;2.88;;;;;20.20;98633.00;;;;5029331;28;20054;-63
2023/07/16 06:27:05;;;;;;;6.47;2.67;;;;;20.20;98618.00;;;;4996523;28;20050;-63
2023/07/16 06:29:31;;;;;;;9.27;3.10;;;;;20.40;98625.00;;;;5012534;28;20053;-63
2023/07/16 06:31:58;;;;;;;7.47;3.08;;;;;20.60;98618.00;;;;5013891;28;20465;-63
2023/07/16 06:34:25;;;;;;;7.38;2.50;;;;;20.80;98633.00;;;;5014111;28;20407;-63
2023/07/16 06:36:52;;;;;;;5.85;2.58;;;;;20.80;98618.00;;;;5012847;28;20553;-64
2023/07/16 06:39:19;;;;;;;6.78;3.28;;;;;20.80;98624.00;;;;5028712;28;20042;-64
2023/07/16 06:41:46;;;;;;;7.20;3.10;;;;;20.80;98629.00;;;;5029439;28;20046;-63
2023/07/16 06:44:13;;;;;;;4.97;2.65;;;;;20.90;98624.00;;;;5012890;28;20037;-64
2023/07/16 06:46:40;;;;;;;5.68;3.25;;;;;20.90;98622.00;;;;5012820;28;20419;-63
2023/07/16 06:49:07;;;;;;;10.57;3.97;;;;;21.10;98636.00;;;;5012105;28;20115;-63
2023/07/16 06:51:34;;;;;;;7.78;3.17;;;;;21.20;98630.00;;;;5012810;28;20100;-62
2023/07/16 06:54:00;;;;;;;7.13;2.80;;;;;21.10;98628.00;;;;5014012;28;20042;-64
2023/07/16 06:56:27;;;;;;;10.55;2.67;;;;;21.20;98630.00;;;;5013825;28;20104;-63
2023/07/16 06:58:54;;;;;;;8.43;3.50;;;;;21.30;98638.00;;;;5012656;28;20463;-63
2023/07/16 07:01:20;;;;;;;5.03;3.03;;;;;21.40;98637.00;;;;5012085;28;20511;-62
2023/07/16 07:03:47;;;;;;;7.50;3.17;;;;;21.40;98635.00;;;;5028836;28;20108;-63
2023/07/16 07:06:14;;;;;;;7.18;2.78;;;;;21.40;98635.00;;;;5013420;28;20414;-63
2023/07/16 07:08:41;;;;;;;6.20;3.33;;;;;21.50;98637.00;;;;5013214;28;20049;-63
2023/07/16 07:11:08;;;;;;;7.82;3.15;;;;;21.60;98635.00;;;;5010680;28;20675;-65
2023/07/16 07:13:34;;;;;;;6.85;3.08;;;;;21.70;98633.00;;;;5013245;28;20054;-63
2023/07/16 07:16:01;;;;;;;9.73;2.72;;;;;21.70;98634.00;;;;4995677;28;20056;-63
2023/07/16 07:18:28;;;;;;;4.85;2.92;;;;;21.70;98649.00;;;;5028412;28;20487;-63
2023/07/16 07:20:54;;;;;;;8.38;2.97;;;;;21.70;98649.00;;;;5011513;28;20418;-65
2023/07/16 07:23:21;;;;;;;6.38;3.28;;;;;21.70;98643.00;;;;5011984;28;20042;-63
2023/07/16 07:25:51;;;;;;;7.95;2.97;;;;;21.80;98648.00;;;;5012906;28;20132;-63
2023/07/16 07:28:21;;;;;;;7.72;3.25;;;;;22.00;98644.00;;;;5011922;28;20132;-64
2023/07/16 07:30:47;;;;;;;8.98;3.30;;;;;22.10;98653.00;;;;5151626;22;20094;-64
2023/07/16 07:33:14;;;;;;;5.97;2.95;;;;;22.00;98653.00;;;;5012062;28;20045;-65
2023/07/16 07:35:41;;;;;;;6.38;3.47;;;;;22.00;98657.00;;;;5013420;28;20056;-64
2023/07/16 07:38:07;;;;;;;8.75;3.40;;;;;22.00;98657.00;;;;5011917;28;20433;-63
2023/07/16 07:40:34;;;;;;;6.07;3.10;;;;;22.10;98650.00;;;;5012424;28;20512;-65
2023/07/16 07:43:01;;;;;;;9.85;3.08;;;;;22.10;98649.00;;;;4995402;28;20053;-64
2023/07/16 07:45:27;;;;;;;5.05;2.70;;;;;22.00;98656.00;;;;4995238;28;20049;-64
2023/07/16 07:47:54;;;;;;;5.25;2.78;;;;;22.10;98650.00;;;;5011585;28;20145;-63
2023/07/16 07:50:20;;;;;;;7.00;2.92;;;;;22.20;98661.00;;;;4994814;28;20053;-63
2023/07/16 07:52:47;;;;;;;10.40;3.33;;;;;22.30;98669.00;;;;5013049;28;20048;-64
2023/07/16 07:55:14;;;;;;;8.00;3.30;;;;;22.40;98665.00;;;;5011617;28;20132;-65
2023/07/16 07:57:40;;;;;;;5.05;3.00;;;;;22.30;98680.00;;;;5011707;28;20046;-65
2023/07/16 08:00:11;;;;;;;5.50;2.85;;;;;22.20;98661.00;;;;5011162;28;20053;-65
2023/07/16 08:02:38;;;;;;;8.73;3.00;;;;;22.20;98675.00;;;;5013006;28;20449;-65
2023/07/16 08:05:05;;;;;;;7.57;2.53;;;;;22.20;98670.00;;;;5012410;28;20049;-65
2023/07/16 08:07:32;;;;;;;8.00;3.25;;;;;22.30;98660.00;;;;5010653;28;20069;-65
2023/07/16 08:09:59;;;;;;;7.18;3.22;;;;;22.50;98664.00;;;;5011946;28;20056;-65
2023/07/16 08:12:25;;;;;;;8.18;3.90;;;;;22.70;98672.00;;;;5012639;28;20054;-65
2023/07/16 08:14:52;;;;;;;7.60;3.10;;;;;22.70;98679.00;;;;5011250;28;20686;-65
2023/07/16 08:17:18;;;;;;;7.30;3.17;;;;;22.80;98672.00;;;;5011509;28;20042;-65
2023/07/16 08:19:49;;;;;;;5.50;2.80;;;;;22.80;98677.00;;;;5000410;28;20080;-65
2023/07/16 08:22:16;;;;;;;7.15;3.00;;;;;22.60;98675.00;;;;5012596;28;20048;-64
2023/07/16 08:24:42;;;;;;;12.88;5.38;;;;;22.70;98670.00;;;;5012441;28;20046;-65
2023/07/16 08:27:09;;;;;;;6.10;2.65;;;;;22.60;98666.00;;;;5011374;28;20052;-65
2023/07/16 08:29:36;;;;;;;6.65;2.90;;;;;22.60;98665.00;;;;5012632;28;20042;-65
2023/07/16 08:32:03;;;;;;;5.68;2.83;;;;;22.70;98673.00;;;;5012068;28;20050;-65
2023/07/16 08:34:29;;;;;;;8.98;3.60;;;;;22.80;98678.00;;;;5012306;28;20049;-64
2023/07/16 08:36:56;;;;;;;8.27;2.72;;;;;22.90;98680.00;;;;5012495;28;20394;-64
2023/07/16 08:39:23;;;;;;;5.47;2.88;;;;;23.00;98672.00;;;;5010394;28;20068;-64
2023/07/16 08:41:52;;;;;;;4.53;2.97;;;;;23.00;98676.00;;;;5012186;28;20042;-64
2023/07/16 08:44:20;;;;;;;5.57;2.80;;;;;22.90;98679.00;;;;5012311;28;20046;-65
2023/07/16 08:46:46;;;;;;;8.75;2.58;;;;;22.70;98679.00;;;;5012221;28;20074;-65
2023/07/16 08:49:13;;;;;;;7.32;3.00;;;;;22.70;98672.00;;;;5010359;28;20046;-65
2023/07/16 08:51:41;;;;;;;5.47;2.20;;;;;22.80;98684.00;;;;5011977;28;20188;-66
2023/07/16 08:54:08;;;;;;;7.15;2.70;;;;;22.70;98683.00;;;;5012212;28;20046;-65
2023/07/16 08:56:34;;;;;;;7.30;2.97;;;;;22.80;98685.00;;;;5011382;28;20464;-65
2023/07/16 08:59:01;;;;;;;5.95;2.60;;;;;22.90;98683.00;;;;5011974;28;20124;-65
2023/07/16 09:01:28;;;;;;;5.75;2.75;;;;;23.00;98686.00;;;;5012604;28;20076;-66
2023/07/16 09:03:55;;;;;;;8.38;2.92;;;;;23.00;98689.00;;;;4994693;28;20088;-66
2023/07/16 09:06:21;;;;;;;4.88;2.38;;;;;23.10;98684.00;;;;5011361;28;20144;-66
2023/07/16 09:08:48;;;;;;;6.65;2.95;;;;;23.10;98678.00;;;;5012987;28;20046;-65
2023/07/16 09:11:16;;;;;;;5.25;2.90;;;;;23.10;98671.00;;;;5009896;28;20056;-64
2023/07/16 09:13:45;;;;;;;5.10;2.88;;;;;23.20;98679.00;;;;5012208;28;20049;-65
2023/07/16 09:16:12;;;;;;;7.10;2.80;;;;;23.50;98680.00;;;;5012266;28;20092;-66
2023/07/16 09:18:40;;;;;;;4.32;2.15;;;;;23.70;98696.00;;;;5012570;28;20529;-66
2023/07/16 09:21:06;;;;;;;4.00;2.17;;;;;23.70;98700.00;;;;5010455;28;20494;-67
2023/07/16 09:23:33;;;;;;;5.60;2.33;;;;;23.60;98703.00;;;;5012541;28;20524;-67
2023/07/16 09:26:00;;;;;;;7.18;2.83;;;;;23.60;98696.00;;;;5011888;28;20445;-67
2023/07/16 09:28:27;;;;;;;5.72;2.35;;;;;23.60;98711.00;;;;5010763;28;20137;-68
2023/07/16 09:30:53;;;;;;;6.18;2.63;;;;;23.40;98713.00;;;;5010281;28;20069;-68
2023/07/16 09:33:22;;;;;;;6.60;3.15;;;;;23.20;98712.00;;;;5011159;28;20053;-68
2023/07/16 09:35:50;;;;;;;4.75;2.72;;;;;23.20;98704.00;;;;4997564;28;20148;-68
2023/07/16 09:38:18;;;;;;;7.60;2.70;;;;;23.20;98696.00;;;;4998329;28;20457;-67
2023/07/16 09:40:45;;;;;;;7.05;2.85;;;;;23.20;98704.00;;;;5014766;28;20084;-69
2023/07/16 09:43:12;;;;;;;6.65;2.40;;;;;23.20;98702.00;;;;5014471;28;20383;-68
2023/07/16 09:45:41;;;;;;;4.55;2.30;;;;;23.10;98700.00;;;;5015413;28;20056;-69
2023/07/16 09:48:08;;;;;;;6.00;2.40;;;;;23.10;98709.00;;;;5014110;28;20038;-70
2023/07/16 09:50:36;;;;;;;7.35;2.47;;;;;22.90;98705.00;;;;5013493;28;20136;-69
2023/07/16 09:53:07;;;;;;;8.02;3.08;;;;;22.90;98702.00;;;;5014033;28;20086;-69
2023/07/16 09:55:35;;;;;;;7.68;2.75;;;;;22.80;98706.00;;;;5015056;28;20042;-69
2023/07/16 09:58:07;;;;;;;7.07;2.63;;;;;22.90;98690.00;;;;5013854;28;20100;-68
2023/07/16 10:00:36;;;;;;;6.72;2.85;;;;;22.90;98700.00;;;;5012810;28;20054;-69
2023/07/16 10:03:05;;;;;;;6.05;2.65;;;;;22.90;98697.00;;;;5015144;28;20084;-70
2023/07/16 10:05:36;;;;;;;7.55;3.15;;;;;22.90;98710.00;;;;5013825;28;20138;-68
2023/07/16 10:08:03;;;;;;;6.13;2.70;;;;;22.90;98698.00;;;;5014966;28;20119;-68
2023/07/16 10:10:42;;;;;;;7.30;2.78;;;;;22.90;98705.00;;;;5014162;28;20056;-69
2023/07/16 10:13:12;;;;;;;3.70;2.40;;;;;22.90;98704.00;;;;5014010;28;20101;-68
2023/07/16 10:15:39;;;;;;;5.68;2.50;;;;;22.90;98705.00;;;;5013843;28;20052;-68
2023/07/16 10:18:06;;;;;;;5.97;3.05;;;;;23.00;98698.00;;;;5013528;28;20498;-69
2023/07/16 10:20:36;;;;;;;6.45;3.03;;;;;23.30;98700.00;;;;5014278;28;20049;-69
2023/07/16 10:23:14;;;;;;;3.20;2.47;;;;;23.50;98699.00;;;;5013362;28;20053;-68
2023/07/16 10:26:00;;;;;;;6.80;2.72;;;;;23.80;98701.00;;;;5013126;28;20115;-68
2023/07/16 10:28:26;;;;;;;6.88;2.67;;;;;23.90;98699.00;;;;5013244;28;20453;-68
2023/07/16 10:30:53;;;;;;;7.75;3.03;;;;;24.00;98703.00;;;;5012457;28;20132;-68
2023/07/16 10:33:20;;;;;;;4.07;2.33;;;;;23.90;98711.00;;;;5014320;28;20037;-67
2023/07/16 10:35:46;;;;;;;8.00;2.65;;;;;24.00;98698.00;;;;5014482;28;20124;-66
2023/07/16 10:38:13;;;;;;;3.53;2.50;;;;;24.10;98702.00;;;;5014235;28;20037;-67
2023/07/16 10:40:44;;;;;;;8.98;2.75;;;;;24.30;98697.00;;;;5012362;28;20097;-66
2023/07/16 10:43:12;;;;;;;10.10;3.45;;;;;24.60;98700.00;;;;5014429;28;20042;-65
2023/07/16 10:45:39;;;;;;;3.92;2.33;;;;;24.90;98699.00;;;;5013519;28;20489;-65
2023/07/16 10:48:05;;;;;;;9.73;2.60;;;;;25.00;98708.00;;;;5014437;28;20042;-64
2023/07/16 10:50:34;;;;;;;5.32;2.28;;;;;25.10;98698.00;;;;5017926;28;20038;-65
2023/07/16 10:53:01;;;;;;;6.20;2.53;;;;;25.20;98691.00;;;;5017080;28;20050;-65
2023/07/16 10:55:31;;;;;;;3.70;2.50;;;;;25.30;98694.00;;;;5017788;28;20046;-64
2023/07/16 10:58:05;;;;;;;7.72;2.75;;;;;25.50;98695.00;;;;5014853;28;20042;-65
2023/07/16 11:00:32;;;;;;;5.13;3.17;;;;;25.50;98690.00;;;;5015242;28;20517;-64
2023/07/16 11:02:59;;;;;;;5.03;2.28;;;;;25.50;98689.00;;;;5018746;28;20057;-64
2023/07/16 11:05:25;;;;;;;10.18;6.85;;;;;25.60;98695.00;;;;5018106;28;20042;-64
2023/07/16 11:07:52;;;;;;;4.15;2.78;;;;;25.90;98685.00;;;;5018539;28;20387;-63
2023/07/16 11:10:22;;;;;;;4.28;2.20;;;;;26.10;98691.00;;;;5013486;28;20113;-64
2023/07/16 11:12:53;;;;;;;4.18;2.42;;;;;26.20;98683.00;;;;5013459;28;20069;-64
2023/07/16 11:15:40;;;;;;;4.82;2.72;;;;;26.30;98685.00;;;;5013683;28;20115;-64
2023/07/16 11:18:07;;;;;;;4.57;2.75;;;;;26.40;98685.00;;;;5012501;28;20038;-64
2023/07/16 11:20:34;;;;;;;7.50;3.35;;;;;26.50;98691.00;;;;5013190;28;20046;-64
2023/07/16 11:23:01;;;;;;;5.10;2.63;;;;;26.70;98684.00;;;;5012394;28;20068;-64
2023/07/16 11:25:28;;;;;;;6.55;3.40;;;;;26.90;98695.00;;;;5012280;28;20386;-64
2023/07/16 11:27:58;;;;;;;4.22;2.65;;;;;27.10;98684.00;;;;5013302;28;20706;-64
2023/07/16 11:30:25;;;;;;;7.13;3.15;;;;;27.20;98685.00;;;;5012584;28;20104;-65
2023/07/16 11:32:52;;;;;;;3.58;2.10;;;;;27.20;98696.00;;;;5013099;28;20038;-64
2023/07/16 11:35:20;;;;;;;4.75;2.50;;;;;27.20;98700.00;;;;5013425;28;20045;-64
2023/07/16 11:37:47;;;;;;;3.30;2.33;;;;;27.20;98691.00;;;;5013159;28;20041;-65
2023/07/16 11:40:19;;;;;;;5.63;2.90;;;;;27.30;98696.00;;;;5012623;28;20067;-64
2023/07/16 11:42:46;;;;;;;6.28;2.47;;;;;27.20;98688.00;;;;5011732;28;20142;-64
2023/07/16 11:45:20;;;;;;;5.95;3.10;;;;;27.10;98681.00;;;;5011864;28;20052;-64
2023/07/16 11:47:47;;;;;;;4.38;2.42;;;;;27.10;98695.00;;;;5012934;28;20111;-64
2023/07/16 11:50:14;;;;;;;4.82;2.85;;;;;26.90;98694.00;;;;5012349;28;20049;-65
2023/07/16 11:52:41;;;;;;;6.03;2.45;;;;;26.90;98693.00;;;;5011830;28;20073;-65
2023/07/16 11:55:08;;;;;;;3.90;2.00;;;;;27.00;98681.00;;;;4995235;28;20053;-65
2023/07/16 11:57:35;;;;;;;5.75;2.85;;;;;27.00;98680.00;;;;5012466;28;20069;-65
2023/07/16 12:00:03;;;;;;;5.93;2.60;;;;;26.90;98683.00;;;;5012167;28;20117;-65
2023/07/16 12:02:30;;;;;;;5.13;3.30;;;;;26.90;98673.00;;;;5012950;28;20521;-66
2023/07/16 12:04:57;;;;;;;8.75;2.75;;;;;26.90;98692.00;;;;5012619;28;20114;-65
2023/07/16 12:07:37;;;;;;;3.63;2.33;;;;;27.00;98692.00;;;;5012643;28;20077;-65
2023/07/16 12:10:06;;;;;;;3.67;2.45;;;;;26.90;98681.00;;;;5012126;28;20041;-65
2023/07/16 12:12:33;;;;;;;5.13;3.03;;;;;27.10;98676.00;;;;5012590;28;20104;-65
2023/07/16 12:15:00;;;;;;;5.93;3.00;;;;;27.10;98678.00;;;;5012729;28;20382;-65
2023/07/16 12:17:27;;;;;;;5.90;2.75;;;;;27.10;98683.00;;;;5012619;28;20042;-65
2023/07/16 12:19:53;;;;;;;3.63;2.47;;;;;26.90;98672.00;;;;5010677;28;20041;-65
2023/07/16 12:22:21;;;;;;;5.20;3.92;;;;;26.70;98679.00;;;;5012211;28;20118;-65